createdAt,value
2023-01-24T00:01:05.746Z,6.68
2023-01-24T00:03:32.911Z,4.88
2023-01-24T00:06:00.185Z,4.60
2023-01-24T00:08:27.439Z,5.25
2023-01-24T00:11:07.148Z,7.60
2023-01-24T00:13:36.011Z,4.68
2023-01-24T00:16:08.505Z,7.75
2023-01-24T00:18:36.471Z,3.80
2023-01-24T00:21:06.719Z,5.82
2023-01-24T00:23:33.962Z,4.35
2023-01-24T00:26:01.224Z,7.63
2023-01-24T00:28:28.521Z,5.38
2023-01-24T00:30:55.630Z,7.30
2023-01-24T00:33:22.887Z,3.50
2023-01-24T00:35:53.564Z,3.42
2023-01-24T00:38:22.347Z,3.85
2023-01-24T00:40:51.363Z,3.33
2023-01-24T00:43:18.967Z,5.05
2023-01-24T00:45:47.191Z,5.57
2023-01-24T00:48:15.463Z,4.47
2023-01-24T00:50:42.764Z,3.47
2023-01-24T00:53:10.111Z,5.05
2023-01-24T00:55:47.203Z,3.50
2023-01-24T00:58:14.947Z,6.13
2023-01-24T01:00:42.374Z,4.65
2023-01-24T01:03:13.856Z,5.18
2023-01-24T01:05:43.266Z,5.18
2023-01-24T01:08:11.793Z,4.47
2023-01-24T01:10:40.176Z,5.43
2023-01-24T01:13:07.773Z,4.07
2023-01-24T01:15:35.177Z,4.22
2023-01-24T01:18:04.221Z,5.45
2023-01-24T01:20:31.404Z,4.15
2023-01-24T01:22:59.548Z,5.25
2023-01-24T01:25:26.518Z,3.90
2023-01-24T01:27:53.496Z,3.40
2023-01-24T01:30:20.875Z,3.30
2023-01-24T01:32:48.247Z,4.25
2023-01-24T01:35:15.732Z,3.83
2023-01-24T01:37:42.759Z,6.50
2023-01-24T01:40:10.484Z,2.63
2023-01-24T01:42:57.236Z,3.65
2023-01-24T01:46:05.082Z,3.58
2023-01-24T01:48:46.115Z,6.03
2023-01-24T01:51:20.647Z,4.18
2023-01-24T01:53:55.000Z,4.05
2023-01-24T01:56:40.172Z,5.43
2023-01-24T01:59:17.274Z,5.60
2023-01-24T02:01:45.889Z,3.90
2023-01-24T02:04:21.804Z,3.80
2023-01-24T02:07:09.323Z,4.55
2023-01-24T02:09:41.313Z,3.40
2023-01-24T02:12:14.737Z,4.15
2023-01-24T02:17:28.356Z,5.57
2023-01-24T02:20:07.453Z,6.78
2023-01-24T02:22:54.458Z,3.53
2023-01-24T02:25:37.330Z,3.83
2023-01-24T02:28:06.563Z,3.80
2023-01-24T02:30:33.856Z,4.05
2023-01-24T02:33:09.238Z,4.78
2023-01-24T02:35:36.297Z,3.33
2023-01-24T02:38:07.487Z,4.28
2023-01-24T02:40:35.602Z,4.35
2023-01-24T02:43:06.299Z,3.78
2023-01-24T02:45:36.171Z,5.50
2023-01-24T02:48:03.454Z,3.75
2023-01-24T02:50:55.459Z,2.85
2023-01-24T02:53:32.730Z,4.28
2023-01-24T02:56:21.398Z,4.53
2023-01-24T02:58:48.833Z,3.17
2023-01-24T03:01:17.137Z,4.50
2023-01-24T03:03:48.859Z,5.32
2023-01-24T03:06:18.242Z,3.30
2023-01-24T03:08:46.063Z,4.63
2023-01-24T03:11:39.567Z,3.67
2023-01-24T03:14:25.048Z,4.45
2023-01-24T03:17:10.846Z,3.63
2023-01-24T03:19:56.342Z,3.70
2023-01-24T03:22:41.886Z,8.52
2023-01-24T03:25:27.820Z,2.63
2023-01-24T03:28:13.516Z,3.22
2023-01-24T03:30:59.205Z,2.78
2023-01-24T03:33:45.199Z,5.38
2023-01-24T03:36:20.670Z,3.88
2023-01-24T03:39:11.806Z,3.72
2023-01-24T03:41:38.950Z,2.30
2023-01-24T03:44:07.343Z,3.58
2023-01-24T03:46:41.065Z,3.58
2023-01-24T03:49:10.764Z,3.17
2023-01-24T03:51:57.808Z,2.88
2023-01-24T03:54:25.912Z,2.63
2023-01-24T03:56:58.798Z,3.13
2023-01-24T03:59:26.869Z,3.50
2023-01-24T04:01:53.839Z,3.83
2023-01-24T04:04:45.664Z,2.40
2023-01-24T04:07:25.688Z,2.40
2023-01-24T04:09:55.372Z,3.55
2023-01-24T04:12:22.438Z,2.03
2023-01-24T04:14:49.719Z,2.95
2023-01-24T04:17:16.634Z,3.50
2023-01-24T04:19:47.655Z,3.10
2023-01-24T04:22:17.228Z,2.67
2023-01-24T04:24:45.807Z,2.78
2023-01-24T04:27:13.449Z,2.38
2023-01-24T04:30:00.223Z,1.63
2023-01-24T04:32:30.172Z,2.90
2023-01-24T04:35:23.483Z,1.88
2023-01-24T04:38:01.344Z,5.65
2023-01-24T04:41:03.536Z,1.88
2023-01-24T04:43:38.356Z,1.52
2023-01-24T04:46:05.909Z,2.65
2023-01-24T04:48:53.285Z,1.75
2023-01-24T04:51:21.261Z,1.42
2023-01-24T04:53:49.559Z,3.15
2023-01-24T04:56:20.928Z,2.63
2023-01-24T04:58:47.991Z,6.45
2023-01-24T05:01:15.476Z,2.58
2023-01-24T05:04:05.894Z,2.72
2023-01-24T05:06:34.550Z,1.98
2023-01-24T05:09:01.973Z,2.30
2023-01-24T05:11:39.317Z,4.60
2023-01-24T05:14:08.832Z,2.30
2023-01-24T05:16:36.002Z,2.42
2023-01-24T05:19:03.237Z,4.13
2023-01-24T05:21:31.015Z,3.17
2023-01-24T05:23:58.356Z,1.98
2023-01-24T05:26:27.575Z,3.63
2023-01-24T05:28:55.582Z,3.22
2023-01-24T05:31:24.510Z,3.22
2023-01-24T05:33:51.778Z,3.22
2023-01-24T05:36:23.153Z,3.50
2023-01-24T05:38:51.379Z,5.03
2023-01-24T05:41:21.102Z,2.72
2023-01-24T05:43:51.140Z,3.42
2023-01-24T05:46:23.111Z,2.67
2023-01-24T05:49:05.865Z,2.53
2023-01-24T05:51:33.273Z,4.00
2023-01-24T05:54:00.366Z,4.18
2023-01-24T05:56:47.678Z,3.63
2023-01-24T05:59:15.066Z,5.75
2023-01-24T06:01:42.107Z,7.20
2023-01-24T06:04:11.539Z,8.38
2023-01-24T06:06:40.186Z,7.75
2023-01-24T06:09:07.183Z,8.60
2023-01-24T06:11:34.525Z,7.28
2023-01-24T06:14:21.295Z,10.25
2023-01-24T06:16:49.759Z,11.35
2023-01-24T06:19:18.681Z,5.10
2023-01-24T06:21:50.504Z,5.18
2023-01-24T06:24:26.864Z,7.72
2023-01-24T06:27:01.462Z,4.57
2023-01-24T06:29:28.791Z,4.45
2023-01-24T06:32:01.264Z,4.50
2023-01-24T06:34:57.926Z,6.25
2023-01-24T06:37:42.415Z,8.20
2023-01-24T06:40:11.231Z,5.93
2023-01-24T06:42:38.843Z,6.00
2023-01-24T06:45:07.276Z,5.00
2023-01-24T06:47:34.787Z,6.05
2023-01-24T06:50:02.355Z,6.75
2023-01-24T06:52:29.386Z,5.40
2023-01-24T06:54:56.420Z,6.85
2023-01-24T06:57:23.550Z,6.50
2023-01-24T06:59:50.667Z,11.35
2023-01-24T07:02:17.762Z,8.25
2023-01-24T07:04:44.763Z,14.30
2023-01-24T07:07:14.879Z,10.52
2023-01-24T07:09:42.195Z,10.55
2023-01-24T07:12:09.159Z,8.85
2023-01-24T07:14:36.227Z,9.75
2023-01-24T07:17:03.483Z,13.90
2023-01-24T07:19:30.951Z,10.70
2023-01-24T07:21:58.489Z,7.55
2023-01-24T07:24:30.620Z,10.35
2023-01-24T07:27:01.037Z,10.73
2023-01-24T07:29:28.298Z,9.23
2023-01-24T07:31:55.569Z,9.18
2023-01-24T07:34:22.959Z,14.68
2023-01-24T07:36:50.211Z,13.20
2023-01-24T07:39:17.358Z,14.23
2023-01-24T07:41:45.366Z,19.00
2023-01-24T07:44:14.396Z,23.38
2023-01-24T07:46:41.680Z,22.33
2023-01-24T07:49:08.719Z,25.75
2023-01-24T07:51:35.713Z,25.15
2023-01-24T07:54:03.260Z,32.30
2023-01-24T07:56:30.317Z,23.08
2023-01-24T07:58:58.469Z,26.15
2023-01-24T08:01:27.441Z,28.38
2023-01-24T08:03:58.690Z,27.95
2023-01-24T08:06:28.640Z,28.48
2023-01-24T08:08:56.665Z,32.53
2023-01-24T08:11:26.508Z,27.00
2023-01-24T08:13:53.623Z,25.42
2023-01-24T08:16:24.898Z,25.23
2023-01-24T08:18:52.266Z,23.25
2023-01-24T08:21:19.263Z,15.95
2023-01-24T08:23:46.484Z,26.88
2023-01-24T08:26:13.475Z,20.25
2023-01-24T08:28:40.559Z,19.02
2023-01-24T08:31:07.607Z,22.25
2023-01-24T08:33:39.037Z,21.20
2023-01-24T08:36:06.634Z,19.38
2023-01-24T08:38:33.767Z,16.02
2023-01-24T08:41:04.747Z,19.80
2023-01-24T08:43:32.460Z,15.13
2023-01-24T08:45:59.549Z,17.05
2023-01-24T08:48:29.567Z,14.15
2023-01-24T08:50:57.120Z,12.93
2023-01-24T08:53:24.307Z,18.67
2023-01-24T08:55:51.789Z,12.75
2023-01-24T08:58:18.816Z,16.85
2023-01-24T09:00:45.883Z,19.83
2023-01-24T09:03:15.560Z,12.70
2023-01-24T09:05:42.918Z,15.05
2023-01-24T09:08:10.300Z,22.17
2023-01-24T09:10:37.538Z,11.88
2023-01-24T09:13:06.033Z,13.38
2023-01-24T09:15:33.369Z,12.13
2023-01-24T09:18:03.661Z,16.58
2023-01-24T09:20:30.830Z,12.77
2023-01-24T09:22:57.999Z,12.15
2023-01-24T09:25:26.735Z,11.93
2023-01-24T09:27:54.871Z,10.52
2023-01-24T09:30:23.960Z,10.18
2023-01-24T09:32:51.322Z,10.90
2023-01-24T09:35:18.345Z,11.00
2023-01-24T09:37:46.141Z,13.80
2023-01-24T09:40:21.314Z,14.43
2023-01-24T09:43:00.155Z,15.75
2023-01-24T09:45:44.354Z,14.60
2023-01-24T09:48:19.347Z,14.13
2023-01-24T09:50:52.157Z,21.30
2023-01-24T09:53:24.546Z,13.77
2023-01-24T09:55:53.290Z,16.57
2023-01-24T09:58:41.112Z,19.77
2023-01-24T10:01:13.981Z,14.02
2023-01-24T10:03:43.389Z,18.90
2023-01-24T10:06:18.298Z,13.40
2023-01-24T10:09:14.643Z,14.18
2023-01-24T10:11:52.770Z,15.07
2023-01-24T10:14:51.197Z,13.60
2023-01-24T10:17:36.637Z,12.60
2023-01-24T10:20:12.586Z,13.82
2023-01-24T10:22:57.737Z,14.02
2023-01-24T10:25:49.262Z,11.90
2023-01-24T10:28:30.297Z,9.65
2023-01-24T10:31:13.472Z,9.13
2023-01-24T10:33:48.418Z,8.85
2023-01-24T10:36:31.714Z,9.98
2023-01-24T10:38:58.796Z,8.45
2023-01-24T10:41:30.843Z,9.57
2023-01-24T10:44:06.251Z,9.70
2023-01-24T10:46:43.739Z,7.05
2023-01-24T10:49:25.261Z,7.03
2023-01-24T10:52:19.872Z,5.30
2023-01-24T10:54:48.392Z,7.50
2023-01-24T10:57:39.421Z,2.88
2023-01-24T11:00:28.267Z,2.92
2023-01-24T11:02:58.517Z,8.05
2023-01-24T11:05:35.968Z,3.00
2023-01-24T11:08:05.575Z,1.65
2023-01-24T11:10:43.064Z,1.60
2023-01-24T11:13:40.710Z,3.75
2023-01-24T11:16:08.033Z,5.13
2023-01-24T11:18:35.683Z,3.53
2023-01-24T11:21:08.618Z,5.00
2023-01-24T11:23:35.894Z,3.38
2023-01-24T11:26:05.406Z,5.78
2023-01-24T11:28:37.767Z,5.05
2023-01-24T11:31:20.977Z,3.77
2023-01-24T11:34:14.067Z,5.13
2023-01-24T11:37:02.744Z,2.73
2023-01-24T11:39:44.413Z,5.50
2023-01-24T11:42:37.856Z,5.15
2023-01-24T11:45:16.166Z,4.65
2023-01-24T11:48:10.062Z,2.38
2023-01-24T11:54:15.994Z,7.03
2023-01-24T11:56:52.373Z,7.68
2023-01-24T11:59:49.895Z,5.68
2023-01-24T12:02:33.599Z,7.63
2023-01-24T12:05:25.178Z,5.85
2023-01-24T12:08:22.699Z,4.80
2023-01-24T12:11:34.770Z,5.75
2023-01-24T12:14:24.024Z,5.07
2023-01-24T12:17:23.762Z,8.25
2023-01-24T12:20:29.798Z,5.63
2023-01-24T12:23:04.070Z,5.15
2023-01-24T12:25:38.316Z,7.30
2023-01-24T12:28:20.762Z,3.85
2023-01-24T12:30:57.292Z,3.95
2023-01-24T12:33:46.811Z,5.40
2023-01-24T12:36:24.903Z,4.28
2023-01-24T12:38:56.654Z,5.55
2023-01-24T12:41:37.170Z,4.25
2023-01-24T12:44:22.733Z,5.82
2023-01-24T12:47:16.217Z,5.93
2023-01-24T12:49:52.355Z,5.90
2023-01-24T12:52:28.890Z,2.72
2023-01-24T12:55:21.280Z,3.97
2023-01-24T12:58:03.649Z,2.90
2023-01-24T13:00:46.542Z,3.85
2023-01-24T13:03:27.144Z,3.27
2023-01-24T13:06:10.838Z,5.00
2023-01-24T13:11:30.648Z,8.15
2023-01-24T13:14:26.816Z,3.50
2023-01-24T13:16:56.863Z,4.85
2023-01-24T13:19:51.266Z,3.05
2023-01-24T13:22:33.283Z,1.52
2023-01-24T13:25:18.384Z,2.85
2023-01-24T13:27:57.832Z,2.38
2023-01-24T13:30:59.021Z,2.47
2023-01-24T13:33:42.229Z,1.27
2023-01-24T13:36:10.044Z,3.03
2023-01-24T13:38:45.627Z,5.35
2023-01-24T13:41:27.075Z,3.05
2023-01-24T13:44:05.185Z,2.15
2023-01-24T13:46:44.731Z,2.58
2023-01-24T13:49:29.928Z,2.40
2023-01-24T13:51:58.148Z,4.70
2023-01-24T13:54:44.342Z,4.03
2023-01-24T13:57:14.329Z,3.72
2023-01-24T13:59:43.630Z,5.80
2023-01-24T14:02:31.100Z,5.25
2023-01-24T14:04:58.908Z,2.97
2023-01-24T14:07:39.483Z,6.50
2023-01-24T14:10:10.221Z,4.38
2023-01-24T14:12:40.222Z,3.88
2023-01-24T14:15:10.388Z,5.65
2023-01-24T14:17:37.501Z,4.22
2023-01-24T14:20:05.337Z,3.55
2023-01-24T14:22:38.961Z,9.18
2023-01-24T14:25:35.666Z,5.00
2023-01-24T14:28:14.564Z,3.42
2023-01-24T14:30:58.350Z,4.32
2023-01-24T14:36:25.667Z,5.50
2023-01-24T14:39:29.647Z,6.10
2023-01-24T14:42:02.697Z,7.10
2023-01-24T14:44:32.554Z,6.28
2023-01-24T14:47:05.897Z,6.13
2023-01-24T14:49:50.840Z,5.32
2023-01-24T14:52:25.392Z,7.13
2023-01-24T14:54:55.058Z,3.67
2023-01-24T14:57:31.031Z,9.73
2023-01-24T15:00:09.087Z,3.65
2023-01-24T15:02:37.401Z,3.15
2023-01-24T15:05:22.482Z,3.22
2023-01-24T15:07:49.591Z,3.88
2023-01-24T15:10:17.003Z,4.78
2023-01-24T15:12:44.138Z,4.55
2023-01-24T15:15:19.395Z,5.22
2023-01-24T15:17:49.285Z,4.03
2023-01-24T15:20:25.241Z,4.82
2023-01-24T15:22:57.834Z,3.50
2023-01-24T15:25:33.718Z,9.45
2023-01-24T15:28:32.182Z,2.50
2023-01-24T15:31:01.720Z,2.08
2023-01-24T15:33:43.299Z,4.68
2023-01-24T15:36:28.759Z,2.30
2023-01-24T15:38:58.182Z,4.72
2023-01-24T15:41:46.786Z,4.82
2023-01-24T15:44:15.118Z,3.72
2023-01-24T15:47:03.117Z,3.70
2023-01-24T15:49:34.883Z,4.78
2023-01-24T15:52:02.680Z,3.03
2023-01-24T15:54:30.098Z,2.35
2023-01-24T15:57:01.878Z,3.67
2023-01-24T15:59:30.499Z,6.60
2023-01-24T16:01:57.707Z,3.70
2023-01-24T16:04:25.285Z,4.55
2023-01-24T16:06:52.277Z,7.47
2023-01-24T16:09:19.662Z,4.55
2023-01-24T16:11:49.598Z,4.55
2023-01-24T16:14:27.082Z,3.13
2023-01-24T16:16:58.334Z,5.13
2023-01-24T16:19:25.385Z,3.20
2023-01-24T16:21:53.403Z,3.65
2023-01-24T16:24:20.576Z,1.35
2023-01-24T16:26:53.069Z,4.00
2023-01-24T16:29:25.930Z,3.40
2023-01-24T16:31:53.205Z,9.30
2023-01-24T16:34:20.327Z,5.03
2023-01-24T16:36:47.553Z,2.30
2023-01-24T16:39:19.407Z,5.28
2023-01-24T16:41:47.976Z,4.60
2023-01-24T16:44:15.743Z,2.22
2023-01-24T16:46:50.123Z,3.35
2023-01-24T16:49:17.972Z,2.40
2023-01-24T16:51:46.459Z,2.22
2023-01-24T16:54:14.833Z,3.35
2023-01-24T16:56:43.636Z,3.08
2023-01-24T16:59:10.930Z,7.03
2023-01-24T17:01:38.042Z,5.60
2023-01-24T17:04:05.453Z,2.45
2023-01-24T17:06:33.086Z,4.53
2023-01-24T17:09:00.303Z,2.28
2023-01-24T17:11:27.575Z,2.40
2023-01-24T17:13:54.563Z,1.60
2023-01-24T17:16:21.666Z,3.42
2023-01-24T17:18:48.827Z,3.30
2023-01-24T17:21:17.166Z,5.45
2023-01-24T17:23:44.796Z,3.92
2023-01-24T17:26:15.163Z,2.95
2023-01-24T17:28:44.311Z,3.92
2023-01-24T17:31:13.721Z,4.68
2023-01-24T17:33:41.924Z,2.10
2023-01-24T17:36:09.950Z,5.85
2023-01-24T17:38:37.189Z,2.40
2023-01-24T17:41:04.472Z,3.55
2023-01-24T17:43:40.948Z,3.00
2023-01-24T17:46:18.450Z,2.83
2023-01-24T17:48:45.612Z,1.88
2023-01-24T17:51:18.727Z,1.15
2023-01-24T17:53:46.853Z,2.30
2023-01-24T17:56:15.205Z,2.35
2023-01-24T17:58:42.493Z,5.40
2023-01-24T18:01:09.496Z,3.53
2023-01-24T18:03:37.337Z,2.45
2023-01-24T18:06:06.139Z,3.50
2023-01-24T18:08:33.148Z,4.32
2023-01-24T18:11:08.626Z,4.80
2023-01-24T18:13:36.795Z,5.38
2023-01-24T18:16:06.011Z,2.55
2023-01-24T18:18:33.188Z,4.32
2023-01-24T18:21:00.185Z,10.85
2023-01-24T18:23:27.931Z,5.50
2023-01-24T18:26:01.168Z,11.73
2023-01-24T18:28:28.265Z,5.35
2023-01-24T18:30:55.551Z,9.43
2023-01-24T18:33:22.617Z,7.47
2023-01-24T18:35:49.838Z,8.40
2023-01-24T18:38:16.919Z,13.30
2023-01-24T18:40:44.098Z,7.80
2023-01-24T18:43:12.219Z,9.82
2023-01-24T18:45:39.328Z,12.50
2023-01-24T18:48:06.486Z,8.68
2023-01-24T18:50:33.647Z,7.00
2023-01-24T18:53:00.788Z,10.30
2023-01-24T18:55:27.731Z,9.57
2023-01-24T18:57:54.901Z,7.40
2023-01-24T19:00:23.040Z,5.68
2023-01-24T19:02:50.042Z,5.72
2023-01-24T19:05:17.209Z,3.33
2023-01-24T19:07:45.807Z,4.28
2023-01-24T19:10:13.839Z,5.07
2023-01-24T19:12:41.081Z,6.28
2023-01-24T19:15:08.785Z,4.40
2023-01-24T19:17:35.878Z,5.13
2023-01-24T19:20:02.983Z,5.68
2023-01-24T19:22:30.044Z,7.05
2023-01-24T19:24:57.120Z,5.05
2023-01-24T19:27:24.231Z,5.63
2023-01-24T19:29:51.379Z,3.63
2023-01-24T19:32:18.331Z,4.18
2023-01-24T19:34:45.425Z,3.58
2023-01-24T19:37:13.161Z,4.03
2023-01-24T19:39:40.197Z,4.93
2023-01-24T19:42:07.782Z,10.82
2023-01-24T19:44:34.967Z,15.10
2023-01-24T19:47:02.017Z,19.60
2023-01-24T19:49:29.164Z,14.95
2023-01-24T19:51:56.427Z,13.35
2023-01-24T19:54:23.706Z,13.32
2023-01-24T19:56:55.024Z,11.35
2023-01-24T19:59:23.411Z,7.32
2023-01-24T20:01:51.528Z,6.93
2023-01-24T20:04:24.535Z,3.30
2023-01-24T20:06:54.256Z,3.25
2023-01-24T20:09:21.935Z,4.78
2023-01-24T20:11:50.848Z,1.63
2023-01-24T20:14:18.067Z,3.67
2023-01-24T20:16:47.103Z,3.13
2023-01-24T20:19:27.135Z,5.05
2023-01-24T20:21:55.661Z,7.60
2023-01-24T20:24:23.089Z,13.20
2023-01-24T20:26:51.983Z,11.48
2023-01-24T20:29:19.220Z,8.32
2023-01-24T20:31:47.043Z,3.88
2023-01-24T20:34:17.727Z,11.75
2023-01-24T20:36:47.122Z,4.07
2023-01-24T20:39:14.261Z,10.77
2023-01-24T20:41:43.905Z,6.88
2023-01-24T20:44:26.101Z,10.15
2023-01-24T20:46:54.747Z,7.23
2023-01-24T20:49:22.192Z,11.95
2023-01-24T20:51:49.582Z,24.20
2023-01-24T20:54:17.245Z,29.95
2023-01-24T20:56:47.832Z,32.42
2023-01-24T20:59:16.436Z,16.52
2023-01-24T21:01:43.869Z,14.65
2023-01-24T21:04:11.691Z,11.73
2023-01-24T21:06:41.726Z,8.52
2023-01-24T21:09:10.288Z,5.93
2023-01-24T21:11:38.459Z,3.08
2023-01-24T21:14:08.426Z,8.10
2023-01-24T21:16:36.864Z,8.05
2023-01-24T21:19:06.975Z,5.53
2023-01-24T21:21:36.754Z,6.80
2023-01-24T21:24:11.459Z,7.00
2023-01-24T21:26:40.787Z,7.28
2023-01-24T21:29:08.346Z,12.13
2023-01-24T21:31:35.979Z,12.57
2023-01-24T21:34:03.536Z,8.43
2023-01-24T21:36:33.469Z,5.50
2023-01-24T21:39:03.757Z,14.00
2023-01-24T21:41:50.370Z,10.07
2023-01-24T21:44:18.429Z,10.27
2023-01-24T21:46:45.878Z,5.85
2023-01-24T21:49:13.258Z,14.80
2023-01-24T21:51:50.279Z,8.60
2023-01-24T21:54:26.766Z,9.27
2023-01-24T21:57:31.881Z,6.20
2023-01-24T22:00:02.287Z,6.05
2023-01-24T22:02:39.234Z,5.95
2023-01-24T22:05:07.194Z,9.50
2023-01-24T22:07:34.814Z,6.32
2023-01-24T22:10:02.372Z,9.95
2023-01-24T22:12:30.376Z,5.60
2023-01-24T22:14:59.210Z,8.52
2023-01-24T22:17:26.629Z,9.65
2023-01-24T22:19:56.253Z,4.75
2023-01-24T22:22:32.513Z,6.75
2023-01-24T22:25:17.538Z,10.68
2023-01-24T22:27:46.412Z,6.95
2023-01-24T22:30:23.792Z,5.22
2023-01-24T22:32:52.020Z,7.60
2023-01-24T22:35:24.936Z,6.03
2023-01-24T22:38:03.074Z,15.35
2023-01-24T22:40:30.406Z,16.02
2023-01-24T22:42:58.819Z,8.93
2023-01-24T22:45:28.111Z,11.98
2023-01-24T22:47:56.131Z,8.30
2023-01-24T22:50:23.902Z,6.70
2023-01-24T22:52:51.530Z,3.63
2023-01-24T22:55:19.008Z,8.40
2023-01-24T22:57:46.257Z,10.05
2023-01-24T23:00:14.031Z,7.82
2023-01-24T23:02:41.203Z,16.67
2023-01-24T23:05:09.083Z,6.75
2023-01-24T23:07:36.441Z,6.82
2023-01-24T23:10:03.864Z,8.75
2023-01-24T23:12:49.289Z,10.93
2023-01-24T23:15:35.229Z,10.48
2023-01-24T23:18:04.380Z,5.60
2023-01-24T23:20:50.109Z,9.38
2023-01-24T23:23:17.200Z,6.50
2023-01-24T23:25:44.157Z,11.57
2023-01-24T23:28:11.300Z,10.38
2023-01-24T23:30:48.814Z,11.65
2023-01-24T23:33:29.993Z,6.80
2023-01-24T23:35:57.807Z,5.63
2023-01-24T23:38:24.995Z,3.78
2023-01-24T23:40:52.152Z,6.07
2023-01-24T23:43:19.408Z,3.25
2023-01-24T23:45:46.487Z,9.70
2023-01-24T23:48:13.807Z,8.25
2023-01-24T23:50:40.816Z,8.20
2023-01-24T23:53:08.093Z,6.68
2023-01-24T23:55:35.229Z,7.50
2023-01-24T23:58:03.708Z,9.77
